sensor_id;sensor_type;location;lat;lon;timestamp;pressure;altitude;pressure_sealevel;temperature;humidity
9538;BME280;4807;48.024;11.726;2022-08-19T00:01:25;94526.13;;;18.34;100.00
9538;BME280;4807;48.024;11.726;2022-08-19T00:04:36;94511.16;;;18.40;100.00
9538;BME280;4807;48.024;11.726;2022-08-19T00:07:46;94494.97;;;18.62;100.00
9538;BME280;4807;48.024;11.726;2022-08-19T00:10:55;94486.06;;;18.82;100.00
9538;BME280;4807;48.024;11.726;2022-08-19T00:14:05;94491.13;;;18.63;100.00
9538;BME280;4807;48.024;11.726;2022-08-19T00:17:15;94480.00;;;18.53;100.00
9538;BME280;4807;48.024;11.726;2022-08-19T00:20:24;94468.06;;;18.65;100.00
9538;BME280;4807;48.024;11.726;2022-08-19T00:23:33;94472.31;;;18.59;100.00
9538;BME280;4807;48.024;11.726;2022-08-19T00:26:44;94477.69;;;18.52;100.00
9538;BME280;4807;48.024;11.726;2022-08-19T00:29:53;94480.00;;;18.57;100.00
9538;BME280;4807;48.024;11.726;2022-08-19T00:33:07;94479.22;;;18.49;100.00
9538;BME280;4807;48.024;11.726;2022-08-19T00:36:17;94488.44;;;18.55;100.00
9538;BME280;4807;48.024;11.726;2022-08-19T00:39:25;94478.88;;;18.44;100.00
9538;BME280;4807;48.024;11.726;2022-08-19T00:42:37;94467.72;;;18.60;100.00
9538;BME280;4807;48.024;11.726;2022-08-19T00:46:13;94462.72;;;18.54;100.00
9538;BME280;4807;48.024;11.726;2022-08-19T00:49:31;94466.56;;;18.61;100.00
9538;BME280;4807;48.024;11.726;2022-08-19T00:52:47;94446.97;;;18.64;100.00
9538;BME280;4807;48.024;11.726;2022-08-19T00:56:00;94453.84;;;18.68;100.00
9538;BME280;4807;48.024;11.726;2022-08-19T00:59:11;94449.97;;;18.76;100.00
9538;BME280;4807;48.024;11.726;2022-08-19T01:02:42;94445.31;;;18.80;100.00
9538;BME280;4807;48.024;11.726;2022-08-19T01:05:55;94448.47;;;18.68;100.00
9538;BME280;4807;48.024;11.726;2022-08-19T01:09:05;94423.38;;;18.89;100.00
9538;BME280;4807;48.024;11.726;2022-08-19T01:12:14;94421.56;;;18.72;100.00
9538;BME280;4807;48.024;11.726;2022-08-19T01:15:29;94434.69;;;18.59;100.00
9538;BME280;4807;48.024;11.726;2022-08-19T01:18:41;94446.63;;;18.47;100.00
9538;BME280;4807;48.024;11.726;2022-08-19T01:21:59;94457.78;;;18.39;100.00
9538;BME280;4807;48.024;11.726;2022-08-19T01:25:27;94480.03;;;18.43;100.00
9538;BME280;4807;48.024;11.726;2022-08-19T01:28:37;94502.69;;;18.38;100.00
9538;BME280;4807;48.024;11.726;2022-08-19T01:31:48;94506.16;;;18.28;100.00
9538;BME280;4807;48.024;11.726;2022-08-19T01:35:00;94496.91;;;18.43;100.00
9538;BME280;4807;48.024;11.726;2022-08-19T01:38:22;94488.81;;;18.50;100.00
9538;BME280;4807;48.024;11.726;2022-08-19T01:41:34;94488.44;;;18.55;100.00
9538;BME280;4807;48.024;11.726;2022-08-19T01:44:42;94490.75;;;18.50;100.00
9538;BME280;4807;48.024;11.726;2022-08-19T01:47:51;94492.31;;;18.47;100.00
9538;BME280;4807;48.024;11.726;2022-08-19T01:51:10;94500.31;;;18.72;100.00
9538;BME280;4807;48.024;11.726;2022-08-19T01:54:20;94501.13;;;18.62;100.00
9538;BME280;4807;48.024;11.726;2022-08-19T01:57:35;94482.31;;;18.59;100.00
9538;BME280;4807;48.024;11.726;2022-08-19T02:00:45;94490.00;;;18.60;100.00
9538;BME280;4807;48.024;11.726;2022-08-19T02:03:53;94498.44;;;18.51;100.00
9538;BME280;4807;48.024;11.726;2022-08-19T02:07:04;94500.75;;;18.60;100.00
9538;BME280;4807;48.024;11.726;2022-08-19T02:10:18;94513.00;;;18.65;100.00
9538;BME280;4807;48.024;11.726;2022-08-19T02:13:30;94520.69;;;18.70;100.00
9538;BME280;4807;48.024;11.726;2022-08-19T02:16:39;94516.09;;;18.63;100.00
9538;BME280;4807;48.024;11.726;2022-08-19T02:19:47;94517.22;;;18.69;100.00
9538;BME280;4807;48.024;11.726;2022-08-19T02:22:56;94513.00;;;18.68;100.00
9538;BME280;4807;48.024;11.726;2022-08-19T02:26:04;94510.31;;;18.65;100.00
9538;BME280;4807;48.024;11.726;2022-08-19T02:29:15;94498.38;;;18.73;100.00
9538;BME280;4807;48.024;11.726;2022-08-19T02:32:24;94494.53;;;18.74;100.00
9538;BME280;4807;48.024;11.726;2022-08-19T02:35:32;94484.94;;;18.76;100.00
9538;BME280;4807;48.024;11.726;2022-08-19T02:38:41;94456.19;;;18.59;100.00
9538;BME280;4807;48.024;11.726;2022-08-19T02:42:01;94455.81;;;18.43;100.00
9538;BME280;4807;48.024;11.726;2022-08-19T02:45:11;94457.47;;;18.19;100.00
9538;BME280;4807;48.024;11.726;2022-08-19T02:48:22;94459.75;;;18.17;100.00
9538;BME280;4807;48.024;11.726;2022-08-19T02:51:34;94459.78;;;18.10;100.00
9538;BME280;4807;48.024;11.726;2022-08-19T02:54:43;94465.91;;;18.07;100.00
9538;BME280;4807;48.024;11.726;2022-08-19T02:57:52;94470.16;;;18.01;100.00
9538;BME280;4807;48.024;11.726;2022-08-19T03:01:03;94460.53;;;18.07;100.00
9538;BME280;4807;48.024;11.726;2022-08-19T03:04:25;94444.84;;;17.95;100.00
9538;BME280;4807;48.024;11.726;2022-08-19T03:07:34;94444.47;;;17.78;100.00
9538;BME280;4807;48.024;11.726;2022-08-19T03:10:46;94461.75;;;17.70;100.00
9538;BME280;4807;48.024;11.726;2022-08-19T03:13:56;94454.84;;;17.62;100.00
9538;BME280;4807;48.024;11.726;2022-08-19T03:17:07;94456.00;;;17.72;100.00
9538;BME280;4807;48.024;11.726;2022-08-19T03:20:16;94470.94;;;17.87;100.00
9538;BME280;4807;48.024;11.726;2022-08-19T03:23:24;94473.63;;;17.80;100.00
9538;BME280;4807;48.024;11.726;2022-08-19T03:26:33;94476.69;;;17.86;100.00
9538;BME280;4807;48.024;11.726;2022-08-19T03:29:42;94476.28;;;17.91;100.00
9538;BME280;4807;48.024;11.726;2022-08-19T03:32:52;94467.88;;;17.78;100.00
9538;BME280;4807;48.024;11.726;2022-08-19T03:36:08;94479.78;;;17.81;100.00
9538;BME280;4807;48.024;11.726;2022-08-19T03:39:16;94472.09;;;17.79;100.00
9538;BME280;4807;48.024;11.726;2022-08-19T03:42:25;94482.44;;;17.88;100.00
9538;BME280;4807;48.024;11.726;2022-08-19T03:46:01;94484.72;;;17.82;100.00
9538;BME280;4807;48.024;11.726;2022-08-19T03:49:12;94483.97;;;17.74;100.00
9538;BME280;4807;48.024;11.726;2022-08-19T03:52:21;94482.44;;;17.84;100.00
9538;BME280;4807;48.024;11.726;2022-08-19T03:55:29;94476.69;;;17.89;100.00
9538;BME280;4807;48.024;11.726;2022-08-19T03:58:37;94479.38;;;17.78;100.00
9538;BME280;4807;48.024;11.726;2022-08-19T04:01:48;94484.00;;;17.89;100.00
9538;BME280;4807;48.024;11.726;2022-08-19T04:04:57;94479.72;;;17.98;100.00
9538;BME280;4807;48.024;11.726;2022-08-19T04:08:06;94478.94;;;18.15;100.00
9538;BME280;4807;48.024;11.726;2022-08-19T04:11:26;94480.88;;;18.04;100.00
9538;BME280;4807;48.024;11.726;2022-08-19T04:14:50;94484.31;;;18.19;100.00
9538;BME280;4807;48.024;11.726;2022-08-19T04:17:58;94487.75;;;18.23;100.00
9538;BME280;4807;48.024;11.726;2022-08-19T04:21:08;94484.31;;;18.15;100.00
9538;BME280;4807;48.024;11.726;2022-08-19T04:24:23;94496.59;;;18.16;100.00
9538;BME280;4807;48.024;11.726;2022-08-19T04:27:31;94496.59;;;18.16;100.00
9538;BME280;4807;48.024;11.726;2022-08-19T04:30:43;94496.19;;;18.22;100.00
9538;BME280;4807;48.024;11.726;2022-08-19T04:33:53;94507.72;;;18.33;100.00
9538;BME280;4807;48.024;11.726;2022-08-19T04:37:06;94515.78;;;18.33;100.00
9538;BME280;4807;48.024;11.726;2022-08-19T04:40:19;94518.84;;;18.31;100.00
9538;BME280;4807;48.024;11.726;2022-08-19T04:43:45;94522.69;;;18.16;100.00
9538;BME280;4807;48.024;11.726;2022-08-19T04:46:56;94517.72;;;18.14;100.00
9538;BME280;4807;48.024;11.726;2022-08-19T04:50:06;94523.84;;;18.26;100.00
9538;BME280;4807;48.024;11.726;2022-08-19T04:53:20;94520.00;;;18.23;100.00
9538;BME280;4807;48.024;11.726;2022-08-19T04:56:28;94526.50;;;18.36;100.00
9538;BME280;4807;48.024;11.726;2022-08-19T04:59:38;94534.22;;;18.24;100.00
9538;BME280;4807;48.024;11.726;2022-08-19T05:02:47;94540.72;;;18.12;100.00
9538;BME280;4807;48.024;11.726;2022-08-19T05:05:56;94550.34;;;18.09;100.00
9538;BME280;4807;48.024;11.726;2022-08-19T05:09:06;94541.09;;;18.28;100.00
9538;BME280;4807;48.024;11.726;2022-08-19T05:12:15;94537.63;;;18.49;100.00
9538;BME280;4807;48.024;11.726;2022-08-19T05:15:23;94532.25;;;18.45;100.00
9538;BME280;4807;48.024;11.726;2022-08-19T05:18:31;94530.31;;;18.46;100.00
9538;BME280;4807;48.024;11.726;2022-08-19T05:21:59;94526.13;;;18.41;100.00
9538;BME280;4807;48.024;11.726;2022-08-19T05:25:26;94529.56;;;18.38;100.00
9538;BME280;4807;48.024;11.726;2022-08-19T05:28:34;94526.50;;;18.40;100.00
9538;BME280;4807;48.024;11.726;2022-08-19T05:31:43;94521.91;;;18.37;100.00
9538;BME280;4807;48.024;11.726;2022-08-19T05:34:53;94522.28;;;18.35;100.00
9538;BME280;4807;48.024;11.726;2022-08-19T05:38:01;94518.81;;;18.56;100.00
9538;BME280;4807;48.024;11.726;2022-08-19T05:41:13;94511.53;;;18.57;100.00
9538;BME280;4807;48.024;11.726;2022-08-19T05:44:22;94510.75;;;18.45;100.00
9538;BME280;4807;48.024;11.726;2022-08-19T05:47:30;94519.94;;;18.62;100.00
9538;BME280;4807;48.024;11.726;2022-08-19T05:50:40;94509.97;;;18.63;100.00
9538;BME280;4807;48.024;11.726;2022-08-19T05:53:50;94521.03;;;18.75;100.00
9538;BME280;4807;48.024;11.726;2022-08-19T05:57:01;94518.72;;;18.81;100.00
9538;BME280;4807;48.024;11.726;2022-08-19T06:00:11;94517.25;;;18.62;100.00
9538;BME280;4807;48.024;11.726;2022-08-19T06:03:23;94519.13;;;18.76;100.00
9538;BME280;4807;48.024;11.726;2022-08-19T06:06:33;94531.81;;;18.75;100.00
9538;BME280;4807;48.024;11.726;2022-08-19T06:09:41;94530.66;;;18.73;100.00
9538;BME280;4807;48.024;11.726;2022-08-19T06:13:10;94536.78;;;18.73;100.00
9538;BME280;4807;48.024;11.726;2022-08-19T06:16:20;94542.19;;;18.73;100.00
9538;BME280;4807;48.024;11.726;2022-08-19T06:19:30;94536.03;;;18.76;100.00
9538;BME280;4807;48.024;11.726;2022-08-19T06:22:41;94537.56;;;18.74;100.00
9538;BME280;4807;48.024;11.726;2022-08-19T06:25:50;94535.25;;;18.76;100.00
9538;BME280;4807;48.024;11.726;2022-08-19T06:29:00;94533.34;;;18.73;100.00
9538;BME280;4807;48.024;11.726;2022-08-19T06:32:08;94527.97;;;18.73;100.00
9538;BME280;4807;48.024;11.726;2022-08-19T06:35:19;94516.03;;;18.84;100.00
9538;BME280;4807;48.024;11.726;2022-08-19T06:38:28;94524.06;;;18.88;100.00
9538;BME280;4807;48.024;11.726;2022-08-19T06:41:39;94524.78;;;18.99;100.00
9538;BME280;4807;48.024;11.726;2022-08-19T06:44:58;94523.97;;;19.13;100.00
9538;BME280;4807;48.024;11.726;2022-08-19T06:48:15;94527.75;;;19.19;100.00
9538;BME280;4807;48.024;11.726;2022-08-19T06:51:26;94526.94;;;19.29;100.00
9538;BME280;4807;48.024;11.726;2022-08-19T06:54:37;94525.44;;;19.24;100.00
9538;BME280;4807;48.024;11.726;2022-08-19T06:58:02;94519.59;;;19.33;100.00
9538;BME280;4807;48.024;11.726;2022-08-19T07:01:13;94521.63;;;19.22;100.00
9538;BME280;4807;48.024;11.726;2022-08-19T07:04:24;94519.00;;;19.04;100.00
9538;BME280;4807;48.024;11.726;2022-08-19T07:07:34;94514.41;;;18.98;100.00
9538;BME280;4807;48.024;11.726;2022-08-19T07:10:43;94508.56;;;19.17;100.00
9538;BME280;4807;48.024;11.726;2022-08-19T07:13:52;94498.69;;;18.92;100.00
9538;BME280;4807;48.024;11.726;2022-08-19T07:17:11;94500.22;;;18.90;100.00
9538;BME280;4807;48.024;11.726;2022-08-19T07:20:23;94497.91;;;18.95;100.00
9538;BME280;4807;48.024;11.726;2022-08-19T07:23:35;94495.59;;;18.98;100.00
9538;BME280;4807;48.024;11.726;2022-08-19T07:26:44;94482.97;;;18.80;100.00
9538;BME280;4807;48.024;11.726;2022-08-19T07:29:58;94487.81;;;19.14;100.00
9538;BME280;4807;48.024;11.726;2022-08-19T07:33:08;94487.19;;;19.58;100.00
9538;BME280;4807;48.024;11.726;2022-08-19T07:36:20;94487.69;;;19.90;100.00
9538;BME280;4807;48.024;11.726;2022-08-19T07:39:35;94491.28;;;20.59;100.00
9538;BME280;4807;48.024;11.726;2022-08-19T07:42:44;94493.91;;;20.96;100.00
9538;BME280;4807;48.024;11.726;2022-08-19T07:45:53;94489.84;;;21.92;100.00
9538;BME280;4807;48.024;11.726;2022-08-19T07:49:07;94499.03;;;21.98;100.00
9538;BME280;4807;48.024;11.726;2022-08-19T07:52:25;94509.09;;;21.97;100.00
9538;BME280;4807;48.024;11.726;2022-08-19T07:55:35;94508.34;;;21.16;100.00
9538;BME280;4807;48.024;11.726;2022-08-19T07:58:51;94515.31;;;20.80;100.00
9538;BME280;4807;48.024;11.726;2022-08-19T08:02:01;94524.03;;;20.57;100.00
9538;BME280;4807;48.024;11.726;2022-08-19T08:05:12;94531.97;;;20.34;100.00
9538;BME280;4807;48.024;11.726;2022-08-19T08:08:42;94537.59;;;20.05;100.00
9538;BME280;4807;48.024;11.726;2022-08-19T08:12:17;94530.09;;;19.83;100.00
9538;BME280;4807;48.024;11.726;2022-08-19T08:15:42;94517.84;;;19.75;100.00
9538;BME280;4807;48.024;11.726;2022-08-19T08:18:53;94525.19;;;19.67;100.00
9538;BME280;4807;48.024;11.726;2022-08-19T08:22:08;94535.25;;;19.56;100.00
9538;BME280;4807;48.024;11.726;2022-08-19T08:25:38;94539.19;;;19.41;100.00
9538;BME280;4807;48.024;11.726;2022-08-19T08:28:51;94544.38;;;19.07;100.00
9538;BME280;4807;48.024;11.726;2022-08-19T08:32:01;94539.25;;;19.26;100.00
9538;BME280;4807;48.024;11.726;2022-08-19T08:35:23;94537.38;;;19.23;100.00
9538;BME280;4807;48.024;11.726;2022-08-19T08:38:36;94546.13;;;19.34;100.00
9538;BME280;4807;48.024;11.726;2022-08-19T08:41:54;94543.09;;;19.29;100.00
9538;BME280;4807;48.024;11.726;2022-08-19T08:45:18;94549.72;;;19.14;100.00
9538;BME280;4807;48.024;11.726;2022-08-19T08:48:38;94550.88;;;19.16;100.00
9538;BME280;4807;48.024;11.726;2022-08-19T08:51:52;94555.06;;;19.17;100.00
9538;BME280;4807;48.024;11.726;2022-08-19T08:55:14;94552.78;;;19.16;100.00
9538;BME280;4807;48.024;11.726;2022-08-19T08:58:36;94555.69;;;19.46;100.00
9538;BME280;4807;48.024;11.726;2022-08-19T09:01:49;94545.97;;;19.66;100.00
9538;BME280;4807;48.024;11.726;2022-08-19T09:04:57;94544.66;;;19.89;100.00
9538;BME280;4807;48.024;11.726;2022-08-19T09:08:17;94549.56;;;20.01;100.00
9538;BME280;4807;48.024;11.726;2022-08-19T09:11:47;94549.31;;;20.36;100.00
9538;BME280;4807;48.024;11.726;2022-08-19T09:15:04;94538.69;;;20.56;100.00
9538;BME280;4807;48.024;11.726;2022-08-19T09:18:16;94539.19;;;20.81;100.00
9538;BME280;4807;48.024;11.726;2022-08-19T09:21:26;94541.78;;;21.26;100.00
9538;BME280;4807;48.024;11.726;2022-08-19T09:24:39;94553.19;;;21.37;100.00
9538;BME280;4807;48.024;11.726;2022-08-19T09:27:53;94556.16;;;21.46;100.00
9538;BME280;4807;48.024;11.726;2022-08-19T09:31:14;94560.88;;;21.66;100.00
9538;BME280;4807;48.024;11.726;2022-08-19T09:34:23;94557.88;;;22.37;100.00
9538;BME280;4807;48.024;11.726;2022-08-19T09:37:33;94550.44;;;22.64;100.00
9538;BME280;4807;48.024;11.726;2022-08-19T09:40:42;94541.31;;;23.37;100.00
9538;BME280;4807;48.024;11.726;2022-08-19T09:43:55;94540.28;;;24.16;96.58
9538;BME280;4807;48.024;11.726;2022-08-19T09:47:05;94544.72;;;25.16;91.48
9538;BME280;4807;48.024;11.726;2022-08-19T09:50:16;94562.44;;;24.47;90.01
9538;BME280;4807;48.024;11.726;2022-08-19T09:53:26;94554.97;;;24.18;93.27
9538;BME280;4807;48.024;11.726;2022-08-19T09:56:34;94549.88;;;24.37;91.13
9538;BME280;4807;48.024;11.726;2022-08-19T09:59:44;94557.59;;;24.54;89.47
9538;BME280;4807;48.024;11.726;2022-08-19T10:02:53;94557.59;;;24.22;90.29
9538;BME280;4807;48.024;11.726;2022-08-19T10:06:05;94567.19;;;24.43;94.06
9538;BME280;4807;48.024;11.726;2022-08-19T10:09:23;94564.75;;;23.64;92.22
9538;BME280;4807;48.024;11.726;2022-08-19T10:12:46;94563.84;;;23.86;93.79
9538;BME280;4807;48.024;11.726;2022-08-19T10:16:05;94561.16;;;24.03;92.17
9538;BME280;4807;48.024;11.726;2022-08-19T10:19:13;94557.94;;;24.08;91.83
9538;BME280;4807;48.024;11.726;2022-08-19T10:22:32;94551.72;;;23.91;91.15
9538;BME280;4807;48.024;11.726;2022-08-19T10:25:43;94549.16;;;24.20;89.63
9538;BME280;4807;48.024;11.726;2022-08-19T10:28:55;94553.13;;;24.32;91.07
9538;BME280;4807;48.024;11.726;2022-08-19T10:32:08;94545.81;;;24.12;90.38
9538;BME280;4807;48.024;11.726;2022-08-19T10:35:17;94546.59;;;23.97;90.79
9538;BME280;4807;48.024;11.726;2022-08-19T10:38:28;94552.00;;;23.80;92.61
9538;BME280;4807;48.024;11.726;2022-08-19T10:41:40;94544.94;;;22.91;95.37
9538;BME280;4807;48.024;11.726;2022-08-19T10:44:51;94552.63;;;23.52;95.22
9538;BME280;4807;48.024;11.726;2022-08-19T10:48:01;94545.31;;;24.17;90.74
9538;BME280;4807;48.024;11.726;2022-08-19T10:51:10;94552.53;;;24.40;88.16
9538;BME280;4807;48.024;11.726;2022-08-19T10:54:37;94545.72;;;24.16;89.67
9538;BME280;4807;48.024;11.726;2022-08-19T10:58:12;94545.72;;;24.00;90.83
9538;BME280;4807;48.024;11.726;2022-08-19T11:01:20;94547.44;;;23.22;92.69
9538;BME280;4807;48.024;11.726;2022-08-19T11:04:30;94534.25;;;23.04;93.25
9538;BME280;4807;48.024;11.726;2022-08-19T11:07:40;94524.81;;;22.49;97.00
9538;BME280;4807;48.024;11.726;2022-08-19T11:10:50;94523.56;;;23.33;95.66
9538;BME280;4807;48.024;11.726;2022-08-19T11:14:00;94517.19;;;23.43;91.88
9538;BME280;4807;48.024;11.726;2022-08-19T11:17:08;94519.00;;;24.14;90.62
9538;BME280;4807;48.024;11.726;2022-08-19T11:20:19;94517.72;;;24.51;86.12
9538;BME280;4807;48.024;11.726;2022-08-19T11:23:27;94523.47;;;24.98;86.14
9538;BME280;4807;48.024;11.726;2022-08-19T11:26:39;94520.63;;;24.44;84.25
9538;BME280;4807;48.024;11.726;2022-08-19T11:29:50;94530.69;;;24.60;83.59
9538;BME280;4807;48.024;11.726;2022-08-19T11:33:03;94524.72;;;24.04;86.34
9538;BME280;4807;48.024;11.726;2022-08-19T11:36:13;94527.16;;;24.92;85.45
9538;BME280;4807;48.024;11.726;2022-08-19T11:39:22;94521.06;;;23.94;87.08
9538;BME280;4807;48.024;11.726;2022-08-19T11:42:31;94522.47;;;24.92;85.36
9538;BME280;4807;48.024;11.726;2022-08-19T11:46:06;94523.25;;;25.60;82.87
9538;BME280;4807;48.024;11.726;2022-08-19T11:49:19;94513.00;;;25.38;79.50
9538;BME280;4807;48.024;11.726;2022-08-19T11:52:29;94519.63;;;25.37;80.91
9538;BME280;4807;48.024;11.726;2022-08-19T11:55:38;94517.75;;;25.22;81.83
9538;BME280;4807;48.024;11.726;2022-08-19T11:58:51;94515.38;;;25.36;80.62
9538;BME280;4807;48.024;11.726;2022-08-19T12:02:00;94511.72;;;25.56;79.05
9538;BME280;4807;48.024;11.726;2022-08-19T12:05:08;94516.72;;;24.74;78.24
9538;BME280;4807;48.024;11.726;2022-08-19T12:08:20;94516.50;;;25.39;78.42
9538;BME280;4807;48.024;11.726;2022-08-19T12:11:29;94530.41;;;25.54;76.46
9538;BME280;4807;48.024;11.726;2022-08-19T12:14:40;94534.44;;;24.50;80.09
9538;BME280;4807;48.024;11.726;2022-08-19T12:17:49;94534.72;;;24.39;82.16
9538;BME280;4807;48.024;11.726;2022-08-19T12:20:57;94532.59;;;24.30;81.35
9538;BME280;4807;48.024;11.726;2022-08-19T12:24:09;94527.56;;;24.45;79.93
9538;BME280;4807;48.024;11.726;2022-08-19T12:27:18;94527.47;;;24.94;81.20
9538;BME280;4807;48.024;11.726;2022-08-19T12:30:47;94536.78;;;25.34;79.29
9538;BME280;4807;48.024;11.726;2022-08-19T12:33:57;94542.69;;;25.04;80.68
9538;BME280;4807;48.024;11.726;2022-08-19T12:37:06;94545.72;;;23.47;85.60
9538;BME280;4807;48.024;11.726;2022-08-19T12:40:16;94549.84;;;22.10;92.46
9538;BME280;4807;48.024;11.726;2022-08-19T12:43:27;94558.16;;;22.19;95.24
9538;BME280;4807;48.024;11.726;2022-08-19T12:46:37;94551.13;;;22.02;95.52
9538;BME280;4807;48.024;11.726;2022-08-19T12:49:48;94554.91;;;22.31;97.12
9538;BME280;4807;48.024;11.726;2022-08-19T12:53:02;94551.81;;;22.96;93.29
9538;BME280;4807;48.024;11.726;2022-08-19T12:56:13;94557.88;;;22.60;94.03
9538;BME280;4807;48.024;11.726;2022-08-19T12:59:28;94551.94;;;22.89;92.20
9538;BME280;4807;48.024;11.726;2022-08-19T13:02:44;94551.03;;;22.75;92.40
9538;BME280;4807;48.024;11.726;2022-08-19T13:06:00;94560.22;;;22.35;93.88
9538;BME280;4807;48.024;11.726;2022-08-19T13:09:10;94555.53;;;22.39;93.26
9538;BME280;4807;48.024;11.726;2022-08-19T13:12:20;94559.06;;;22.13;96.17
9538;BME280;4807;48.024;11.726;2022-08-19T13:15:34;94555.22;;;22.57;93.77
9538;BME280;4807;48.024;11.726;2022-08-19T13:18:46;94545.28;;;22.50;93.31
9538;BME280;4807;48.024;11.726;2022-08-19T13:21:58;94537.66;;;22.65;93.64
9538;BME280;4807;48.024;11.726;2022-08-19T13:25:08;94534.66;;;22.39;93.19
9538;BME280;4807;48.024;11.726;2022-08-19T13:28:18;94556.31;;;22.16;97.56
9538;BME280;4807;48.024;11.726;2022-08-19T13:31:39;94550.16;;;22.59;92.92
9538;BME280;4807;48.024;11.726;2022-08-19T13:35:05;94543.06;;;23.08;92.49
9538;BME280;4807;48.024;11.726;2022-08-19T13:38:19;94542.63;;;23.29;92.17
9538;BME280;4807;48.024;11.726;2022-08-19T13:41:29;94540.25;;;23.51;86.94
9538;BME280;4807;48.024;11.726;2022-08-19T13:44:39;94549.47;;;23.89;83.72
9538;BME280;4807;48.024;11.726;2022-08-19T13:47:48;94553.81;;;23.51;85.32
9538;BME280;4807;48.024;11.726;2022-08-19T13:51:06;94562.13;;;22.81;86.35
9538;BME280;4807;48.024;11.726;2022-08-19T13:54:18;94556.47;;;22.72;87.02
9538;BME280;4807;48.024;11.726;2022-08-19T13:57:29;94557.63;;;22.05;91.76
9538;BME280;4807;48.024;11.726;2022-08-19T14:00:44;94552.38;;;22.64;91.28
9538;BME280;4807;48.024;11.726;2022-08-19T14:03:53;94547.72;;;23.07;84.76
9538;BME280;4807;48.024;11.726;2022-08-19T14:07:04;94551.53;;;23.46;84.25
9538;BME280;4807;48.024;11.726;2022-08-19T14:10:15;94553.16;;;23.63;82.97
9538;BME280;4807;48.024;11.726;2022-08-19T14:13:23;94551.22;;;23.80;83.52
9538;BME280;4807;48.024;11.726;2022-08-19T14:16:34;94547.66;;;23.67;82.72
9538;BME280;4807;48.024;11.726;2022-08-19T14:19:43;94559.06;;;23.58;84.61
9538;BME280;4807;48.024;11.726;2022-08-19T14:22:54;94551.25;;;22.85;87.61
9538;BME280;4807;48.024;11.726;2022-08-19T14:26:05;94566.25;;;23.09;87.76
9538;BME280;4807;48.024;11.726;2022-08-19T14:29:13;94568.88;;;23.32;86.63
9538;BME280;4807;48.024;11.726;2022-08-19T14:32:23;94560.97;;;23.22;87.14
9538;BME280;4807;48.024;11.726;2022-08-19T14:35:33;94560.19;;;23.41;86.98
9538;BME280;4807;48.024;11.726;2022-08-19T14:38:42;94553.94;;;23.44;85.44
9538;BME280;4807;48.024;11.726;2022-08-19T14:41:52;94556.00;;;23.56;85.55
9538;BME280;4807;48.024;11.726;2022-08-19T14:45:01;94553.06;;;23.47;84.94
9538;BME280;4807;48.024;11.726;2022-08-19T14:48:11;94549.75;;;23.39;84.76
9538;BME280;4807;48.024;11.726;2022-08-19T14:51:26;94557.50;;;23.01;88.44
9538;BME280;4807;48.024;11.726;2022-08-19T14:54:38;94555.09;;;23.43;86.83
9538;BME280;4807;48.024;11.726;2022-08-19T14:57:46;94547.41;;;23.41;84.85
9538;BME280;4807;48.024;11.726;2022-08-19T15:00:55;94547.50;;;23.18;87.25
9538;BME280;4807;48.024;11.726;2022-08-19T15:04:04;94563.53;;;23.29;85.46
9538;BME280;4807;48.024;11.726;2022-08-19T15:07:13;94566.72;;;23.43;86.57
9538;BME280;4807;48.024;11.726;2022-08-19T15:10:22;94575.25;;;23.42;83.86
9538;BME280;4807;48.024;11.726;2022-08-19T15:13:31;94566.44;;;23.58;84.07
9538;BME280;4807;48.024;11.726;2022-08-19T15:16:41;94563.72;;;22.78;86.71
9538;BME280;4807;48.024;11.726;2022-08-19T15:19:51;94578.09;;;22.75;88.70
9538;BME280;4807;48.024;11.726;2022-08-19T15:23:00;94583.47;;;22.32;90.09
9538;BME280;4807;48.024;11.726;2022-08-19T15:26:09;94579.38;;;22.67;88.99
9538;BME280;4807;48.024;11.726;2022-08-19T15:29:22;94582.22;;;23.03;87.22
9538;BME280;4807;48.024;11.726;2022-08-19T15:32:32;94586.41;;;23.08;86.07
9538;BME280;4807;48.024;11.726;2022-08-19T15:35:43;94602.63;;;22.42;88.56
9538;BME280;4807;48.024;11.726;2022-08-19T15:38:52;94599.09;;;22.68;89.99
9538;BME280;4807;48.024;11.726;2022-08-19T15:42:01;94603.63;;;22.74;88.60
9538;BME280;4807;48.024;11.726;2022-08-19T15:45:14;94595.75;;;22.37;89.04
9538;BME280;4807;48.024;11.726;2022-08-19T15:48:24;94607.06;;;22.05;92.56
9538;BME280;4807;48.024;11.726;2022-08-19T15:51:36;94613.44;;;21.61;95.13
9538;BME280;4807;48.024;11.726;2022-08-19T15:54:45;94609.38;;;21.49;96.81
9538;BME280;4807;48.024;11.726;2022-08-19T15:57:53;94618.28;;;22.30;94.61
9538;BME280;4807;48.024;11.726;2022-08-19T16:01:35;94611.78;;;22.94;88.79
9538;BME280;4807;48.024;11.726;2022-08-19T16:05:04;94614.03;;;22.99;87.73
9538;BME280;4807;48.024;11.726;2022-08-19T16:08:32;94621.31;;;22.56;88.43
9538;BME280;4807;48.024;11.726;2022-08-19T16:11:57;94625.72;;;22.23;91.34
9538;BME280;4807;48.024;11.726;2022-08-19T16:15:11;94619.38;;;22.10;92.11
9538;BME280;4807;48.024;11.726;2022-08-19T16:18:21;94617.66;;;22.66;91.05
9538;BME280;4807;48.024;11.726;2022-08-19T16:21:34;94633.50;;;22.67;88.73
9538;BME280;4807;48.024;11.726;2022-08-19T16:24:49;94631.56;;;22.91;87.49
9538;BME280;4807;48.024;11.726;2022-08-19T16:27:58;94631.50;;;22.95;84.46
9538;BME280;4807;48.024;11.726;2022-08-19T16:31:15;94634.16;;;22.98;83.84
9538;BME280;4807;48.024;11.726;2022-08-19T16:34:24;94637.13;;;23.04;84.88
9538;BME280;4807;48.024;11.726;2022-08-19T16:37:33;94637.56;;;22.79;85.74
9538;BME280;4807;48.024;11.726;2022-08-19T16:40:43;94645.75;;;22.25;88.68
9538;BME280;4807;48.024;11.726;2022-08-19T16:43:55;94648.34;;;22.09;89.82
9538;BME280;4807;48.024;11.726;2022-08-19T16:47:04;94647.19;;;22.10;88.09
9538;BME280;4807;48.024;11.726;2022-08-19T16:50:12;94650.47;;;22.21;87.17
9538;BME280;4807;48.024;11.726;2022-08-19T16:53:30;94663.47;;;22.03;89.47
9538;BME280;4807;48.024;11.726;2022-08-19T16:56:46;94671.66;;;21.96;88.98
9538;BME280;4807;48.024;11.726;2022-08-19T16:59:57;94669.31;;;21.68;91.03
9538;BME280;4807;48.024;11.726;2022-08-19T17:03:07;94673.44;;;21.79;91.37
9538;BME280;4807;48.024;11.726;2022-08-19T17:06:24;94679.28;;;21.74;90.69